createdAt,value
2022-08-19T00:00:52.121Z,1.55
2022-08-19T00:04:05.901Z,1.73
2022-08-19T00:07:07.610Z,1.40
2022-08-19T00:10:15.790Z,1.40
2022-08-19T00:13:07.358Z,1.45
2022-08-19T00:16:50.661Z,1.40
2022-08-19T00:19:20.112Z,1.40
2022-08-19T00:25:30.123Z,1.60
2022-08-19T00:37:58.585Z,1.35
2022-08-19T00:40:28.233Z,1.60
2022-08-19T00:43:35.367Z,1.73
2022-08-19T00:46:35.194Z,1.60
2022-08-19T00:53:51.075Z,1.40
2022-08-19T00:56:50.885Z,1.70
2022-08-19T01:00:01.026Z,1.60
2022-08-19T01:03:56.741Z,1.70
2022-08-19T01:06:47.330Z,1.20
2022-08-19T01:09:27.383Z,1.65
2022-08-19T01:22:35.141Z,1.48
2022-08-19T01:25:46.702Z,1.60
2022-08-19T01:28:57.412Z,1.75
2022-08-19T01:31:42.309Z,1.70
2022-08-19T01:34:48.265Z,1.40
2022-08-19T01:37:27.937Z,1.60
2022-08-19T01:40:15.001Z,1.65
2022-08-19T01:42:58.294Z,1.58
2022-08-19T01:45:50.261Z,1.70
2022-08-19T01:48:23.413Z,1.60
2022-08-19T01:51:27.880Z,1.42
2022-08-19T01:54:23.204Z,1.90
2022-08-19T01:57:28.346Z,1.70
2022-08-19T02:00:36.072Z,1.60
2022-08-19T02:03:26.742Z,1.77
2022-08-19T02:06:03.957Z,1.65
2022-08-19T02:08:39.610Z,1.73
2022-08-19T02:11:56.124Z,1.60
2022-08-19T02:15:08.176Z,1.70
2022-08-19T02:17:53.416Z,1.45
2022-08-19T02:20:30.928Z,1.85
2022-08-19T02:23:19.549Z,1.83
2022-08-19T02:25:58.636Z,1.67
2022-08-19T02:28:59.324Z,1.50
2022-08-19T02:32:22.086Z,1.50
2022-08-19T02:38:30.520Z,1.80
2022-08-19T02:41:31.965Z,1.73
2022-08-19T02:44:30.358Z,1.85
2022-08-19T02:47:19.711Z,1.25
2022-08-19T02:50:07.148Z,1.52
2022-08-19T02:52:46.827Z,1.73
2022-08-19T02:55:27.949Z,1.80
2022-08-19T02:58:10.189Z,1.67
2022-08-19T03:01:39.808Z,1.75
2022-08-19T03:08:10.779Z,1.73
2022-08-19T03:11:15.817Z,1.70
2022-08-19T03:14:03.481Z,1.70
2022-08-19T03:17:03.034Z,1.80
2022-08-19T03:20:47.769Z,1.70
2022-08-19T03:27:18.883Z,1.45
2022-08-19T03:30:23.842Z,1.35
2022-08-19T03:36:07.862Z,1.67
2022-08-19T03:39:19.992Z,1.45
2022-08-19T03:42:38.578Z,1.70
2022-08-19T03:46:11.080Z,1.58
2022-08-19T03:55:43.718Z,1.50
2022-08-19T03:58:51.975Z,1.48
2022-08-19T04:02:00.022Z,1.52
2022-08-19T04:05:16.554Z,1.40
2022-08-19T04:07:51.935Z,1.52
2022-08-19T04:10:45.972Z,1.70
2022-08-19T04:13:19.926Z,1.60
2022-08-19T04:16:22.949Z,1.60
2022-08-19T04:19:07.208Z,1.58
2022-08-19T04:22:08.813Z,1.40
2022-08-19T04:28:24.315Z,1.50
2022-08-19T04:31:07.737Z,1.45
2022-08-19T04:34:14.322Z,1.58
2022-08-19T04:37:26.482Z,1.45
2022-08-19T04:44:26.704Z,1.27
2022-08-19T04:47:16.552Z,1.45
2022-08-19T04:50:38.661Z,1.58
2022-08-19T04:53:27.576Z,1.63
2022-08-19T04:59:40.445Z,1.50
2022-08-19T05:02:38.088Z,1.63
2022-08-19T05:05:10.814Z,1.50
2022-08-19T05:07:51.553Z,1.70
2022-08-19T05:13:40.616Z,1.55
2022-08-19T05:17:25.588Z,1.50
2022-08-19T05:23:30.485Z,1.45
2022-08-19T05:26:40.548Z,1.65
2022-08-19T05:29:56.006Z,1.58
2022-08-19T05:32:35.430Z,1.60
2022-08-19T05:35:24.424Z,1.80
2022-08-19T05:38:15.637Z,1.95
2022-08-19T05:40:59.603Z,1.80
2022-08-19T05:44:15.838Z,1.77
2022-08-19T05:47:18.707Z,1.52
2022-08-19T05:50:27.543Z,1.92
2022-08-19T05:53:39.453Z,1.30
2022-08-19T05:56:19.771Z,1.77
2022-08-19T06:02:11.110Z,1.50
2022-08-19T06:10:27.016Z,1.40
2022-08-19T06:13:11.957Z,1.52
2022-08-19T06:16:08.175Z,1.50
2022-08-19T06:19:00.119Z,1.65
2022-08-19T06:21:36.027Z,1.70
2022-08-19T06:25:06.631Z,1.63
2022-08-19T06:28:13.947Z,1.80
2022-08-19T06:38:27.754Z,1.67
2022-08-19T06:49:15.487Z,1.60
2022-08-19T06:55:07.557Z,1.52
2022-08-19T06:57:48.274Z,1.70
2022-08-19T07:00:23.956Z,1.75
2022-08-19T07:03:00.079Z,1.80
2022-08-19T07:05:50.026Z,1.67
2022-08-19T07:09:28.293Z,1.70
2022-08-19T07:12:25.851Z,1.70
2022-08-19T07:16:10.491Z,1.98
2022-08-19T07:19:11.842Z,1.52
2022-08-19T07:22:36.026Z,1.60
2022-08-19T07:25:09.937Z,1.77
2022-08-19T07:28:27.821Z,1.60
2022-08-19T07:31:06.849Z,1.70
2022-08-19T07:33:53.343Z,1.80
2022-08-19T07:36:36.628Z,1.60
2022-08-19T07:39:34.984Z,1.83
2022-08-19T07:42:20.212Z,1.60
2022-08-19T07:45:04.150Z,1.80
2022-08-19T07:47:49.071Z,1.90
2022-08-19T07:50:24.510Z,1.67
2022-08-19T07:56:27.972Z,1.52
2022-08-19T07:59:02.641Z,1.80
2022-08-19T08:05:23.189Z,1.70
2022-08-19T08:11:16.312Z,1.80
2022-08-19T08:14:01.247Z,1.90
2022-08-19T08:20:31.055Z,1.88
2022-08-19T08:23:30.170Z,1.73
2022-08-19T08:26:07.405Z,1.80
2022-08-19T08:28:42.252Z,1.70
2022-08-19T08:31:40.375Z,1.70
2022-08-19T08:34:34.930Z,1.77
2022-08-19T08:37:28.675Z,1.60
2022-08-19T08:40:37.197Z,1.58
2022-08-19T08:43:48.983Z,1.50
2022-08-19T08:46:43.893Z,1.80
2022-08-19T08:49:43.530Z,1.60
2022-08-19T08:52:39.367Z,1.60
2022-08-19T08:55:36.805Z,1.80
2022-08-19T08:58:46.897Z,1.60
2022-08-19T09:02:02.877Z,1.73
2022-08-19T09:04:48.482Z,1.70
2022-08-19T09:11:08.810Z,1.52
2022-08-19T09:18:23.174Z,1.60
2022-08-19T09:21:00.658Z,1.55
2022-08-19T09:23:36.483Z,1.83
2022-08-19T09:26:48.511Z,1.70
2022-08-19T09:30:06.518Z,1.60
2022-08-19T09:32:53.190Z,2.20
2022-08-19T09:35:56.126Z,1.80
2022-08-19T09:38:32.739Z,1.73
2022-08-19T09:41:05.593Z,1.88
2022-08-19T09:43:52.054Z,1.70
2022-08-19T09:46:37.645Z,1.70
2022-08-19T09:49:52.598Z,1.75
2022-08-19T09:52:58.673Z,1.90
2022-08-19T09:56:46.947Z,1.90
2022-08-19T09:59:38.737Z,1.90
2022-08-19T10:12:33.651Z,1.30
2022-08-19T10:17:59.721Z,1.55
2022-08-19T10:21:26.947Z,1.70
2022-08-19T10:24:12.861Z,1.77
2022-08-19T10:27:32.185Z,1.80
2022-08-19T10:30:20.824Z,1.75
2022-08-19T10:33:14.534Z,1.63
2022-08-19T10:36:07.133Z,1.70
2022-08-19T10:39:44.242Z,1.67
2022-08-19T10:47:17.814Z,1.65
2022-08-19T10:51:22.462Z,1.55
2022-08-19T10:58:54.218Z,1.70
2022-08-19T11:05:12.464Z,1.70
2022-08-19T11:08:38.545Z,1.85
2022-08-19T11:12:04.954Z,1.70
2022-08-19T11:15:06.324Z,1.70
2022-08-19T11:17:58.322Z,1.63
2022-08-19T11:24:11.018Z,1.80
2022-08-19T11:27:14.819Z,2.10
2022-08-19T11:30:19.488Z,1.90
2022-08-19T11:33:26.876Z,1.80
2022-08-19T11:36:49.907Z,1.98
2022-08-19T11:39:55.014Z,1.90
2022-08-19T11:43:52.676Z,1.90
2022-08-19T11:47:00.195Z,1.90
2022-08-19T11:49:55.019Z,1.55
2022-08-19T11:52:36.138Z,2.10
2022-08-19T11:55:35.549Z,1.98
2022-08-19T11:58:19.004Z,2.00
2022-08-19T12:01:00.044Z,2.30
2022-08-19T12:03:50.297Z,1.77
2022-08-19T12:06:27.436Z,1.90
2022-08-19T12:09:13.611Z,1.70
2022-08-19T12:11:47.892Z,1.80
2022-08-19T12:14:18.823Z,1.90
2022-08-19T12:16:49.241Z,2.10
2022-08-19T12:19:26.044Z,1.90
2022-08-19T12:22:01.696Z,2.00
2022-08-19T12:24:36.221Z,2.20
2022-08-19T12:37:07.456Z,2.10
2022-08-19T12:39:54.112Z,2.10
2022-08-19T12:42:25.345Z,1.98
2022-08-19T12:44:55.224Z,2.40
2022-08-19T12:47:32.149Z,2.47
2022-08-19T12:50:05.318Z,2.22
2022-08-19T12:52:51.544Z,2.40
2022-08-19T12:55:20.891Z,2.40
2022-08-19T12:57:56.516Z,2.38
2022-08-19T13:00:26.378Z,2.45
2022-08-19T13:03:02.414Z,2.33
2022-08-19T13:05:32.801Z,2.10
2022-08-19T13:08:02.626Z,2.50
2022-08-19T13:10:36.056Z,2.33
2022-08-19T13:13:08.238Z,2.33
2022-08-19T13:15:38.697Z,2.17
2022-08-19T13:18:08.567Z,2.33
2022-08-19T13:20:46.752Z,2.40
2022-08-19T13:23:25.079Z,2.25
2022-08-19T13:26:16.696Z,2.30
2022-08-19T13:29:08.636Z,2.38
2022-08-19T13:32:00.318Z,2.38
2022-08-19T13:34:36.790Z,2.30
2022-08-19T13:37:07.677Z,2.30
2022-08-19T13:39:38.128Z,2.30
2022-08-19T13:42:09.631Z,2.50
2022-08-19T13:44:41.592Z,2.35
2022-08-19T13:47:15.701Z,2.40
2022-08-19T13:52:16.151Z,2.28
2022-08-19T13:54:46.753Z,2.28
2022-08-19T13:57:16.162Z,2.40
2022-08-19T13:59:47.655Z,2.50
2022-08-19T14:02:16.390Z,2.30
2022-08-19T14:04:47.920Z,2.20
2022-08-19T14:07:19.120Z,2.40
2022-08-19T14:09:48.228Z,2.35
2022-08-19T14:12:28.699Z,2.40
2022-08-19T14:15:00.235Z,2.20
2022-08-19T14:17:31.681Z,2.60
2022-08-19T14:20:10.935Z,2.50
2022-08-19T14:22:44.279Z,2.50
2022-08-19T14:25:19.077Z,2.50
2022-08-19T14:27:51.631Z,2.47
2022-08-19T14:30:30.694Z,2.50
2022-08-19T14:33:02.025Z,2.30
2022-08-19T14:35:31.646Z,2.30
2022-08-19T14:38:01.205Z,2.40
2022-08-19T14:40:33.314Z,2.25
2022-08-19T14:43:05.805Z,2.30
2022-08-19T14:45:36.657Z,2.30
2022-08-19T14:48:07.873Z,2.40
2022-08-19T14:50:46.712Z,2.50
2022-08-19T14:53:19.173Z,2.45
2022-08-19T14:55:49.813Z,2.50
2022-08-19T14:58:29.107Z,2.40
2022-08-19T15:01:01.625Z,2.50
2022-08-19T15:03:32.324Z,2.60
2022-08-19T15:06:03.951Z,2.42
2022-08-19T15:08:47.128Z,2.50
2022-08-19T15:11:23.574Z,2.55
2022-08-19T15:13:54.990Z,2.40
2022-08-19T15:16:25.032Z,2.67
2022-08-19T15:18:56.786Z,2.50
2022-08-19T15:21:27.877Z,2.42
2022-08-19T15:23:58.763Z,2.50
2022-08-19T15:26:29.574Z,2.50
2022-08-19T15:29:00.060Z,2.60
2022-08-19T15:31:30.754Z,2.45
2022-08-19T15:34:00.429Z,2.53
2022-08-19T15:36:32.343Z,2.60
2022-08-19T15:39:03.286Z,2.53
2022-08-19T15:41:32.792Z,2.30
2022-08-19T15:44:06.384Z,2.40
2022-08-19T15:46:37.935Z,2.57
2022-08-19T15:49:08.536Z,2.60
2022-08-19T15:51:42.578Z,2.58
2022-08-19T15:54:22.435Z,2.30
2022-08-19T15:57:12.429Z,2.30
2022-08-19T16:00:02.459Z,2.58
2022-08-19T16:02:53.583Z,2.60
2022-08-19T16:05:46.461Z,2.50
2022-08-19T16:08:16.643Z,2.42
2022-08-19T16:10:47.535Z,2.40
2022-08-19T16:13:17.054Z,2.40
2022-08-19T16:15:48.214Z,2.50
2022-08-19T16:18:19.985Z,2.33
2022-08-19T16:20:50.381Z,2.63
2022-08-19T16:23:20.029Z,2.47
2022-08-19T16:25:54.965Z,2.60
2022-08-19T16:28:26.237Z,2.47
2022-08-19T16:30:55.851Z,2.38
2022-08-19T16:33:28.692Z,2.47
2022-08-19T16:36:07.259Z,2.10
2022-08-19T16:38:45.525Z,2.47
2022-08-19T16:41:15.780Z,2.40
2022-08-19T16:43:57.758Z,2.50
2022-08-19T16:46:26.881Z,2.25
2022-08-19T16:48:56.409Z,2.38
2022-08-19T16:51:26.078Z,2.40
2022-08-19T16:53:55.471Z,2.55
2022-08-19T16:56:27.084Z,2.40
2022-08-19T16:58:57.513Z,2.20
2022-08-19T17:01:28.036Z,2.55
2022-08-19T17:04:01.888Z,2.30
2022-08-19T17:06:32.756Z,2.17
2022-08-19T17:09:04.265Z,2.25
2022-08-19T17:11:39.119Z,2.20
2022-08-19T17:14:18.792Z,2.60
2022-08-19T17:16:48.353Z,2.30
2022-08-19T17:19:18.550Z,2.35
2022-08-19T17:21:48.235Z,2.20
2022-08-19T17:24:18.475Z,2.22
2022-08-19T17:26:48.060Z,2.20
2022-08-19T17:29:18.833Z,2.40
2022-08-19T17:31:47.668Z,2.25
2022-08-19T17:34:18.852Z,2.17
2022-08-19T17:37:23.950Z,2.47
2022-08-19T17:41:31.096Z,2.30
2022-08-19T17:44:02.296Z,2.15
2022-08-19T17:46:32.453Z,2.45
2022-08-19T17:49:03.951Z,2.28
2022-08-19T17:51:43.258Z,2.30
2022-08-19T17:54:33.426Z,2.13
2022-08-19T17:57:09.047Z,2.35
2022-08-19T17:59:47.092Z,2.40
2022-08-19T18:02:34.351Z,2.40
2022-08-19T18:06:32.545Z,2.25
2022-08-19T18:09:02.125Z,2.33
2022-08-19T18:11:32.099Z,2.50
2022-08-19T18:14:06.266Z,2.42
2022-08-19T18:16:35.753Z,2.33
2022-08-19T18:19:04.809Z,2.30
2022-08-19T18:21:36.632Z,2.60
2022-08-19T18:24:08.114Z,2.38
2022-08-19T18:26:38.734Z,2.20
2022-08-19T18:29:38.983Z,2.20
2022-08-19T18:32:24.046Z,2.45
2022-08-19T18:34:56.726Z,2.20
2022-08-19T18:41:50.965Z,2.20
2022-08-19T18:44:40.346Z,2.05
2022-08-19T18:47:36.127Z,2.28
2022-08-19T18:50:11.797Z,2.20
2022-08-19T18:52:46.046Z,2.03
2022-08-19T18:55:19.827Z,2.08
2022-08-19T18:57:51.975Z,2.30
2022-08-19T19:00:23.689Z,2.20
2022-08-19T19:02:56.107Z,2.40
2022-08-19T19:05:27.789Z,2.25
2022-08-19T19:07:57.749Z,2.42
2022-08-19T19:10:28.700Z,2.30
2022-08-19T19:12:58.304Z,2.30
2022-08-19T19:15:29.194Z,2.20
2022-08-19T19:18:00.837Z,2.42
2022-08-19T19:20:36.127Z,2.50
2022-08-19T19:23:07.561Z,2.35
2022-08-19T19:25:50.463Z,2.53
2022-08-19T19:28:27.004Z,2.20
2022-08-19T19:31:00.909Z,2.28
2022-08-19T19:33:31.730Z,2.42
2022-08-19T19:36:00.718Z,2.50
2022-08-19T19:38:30.581Z,2.33
2022-08-19T19:40:59.853Z,2.30
2022-08-19T19:43:34.945Z,2.30
2022-08-19T19:48:41.103Z,2.20
2022-08-19T19:51:13.709Z,2.40
2022-08-19T19:53:43.759Z,2.28
2022-08-19T19:56:15.231Z,2.45
2022-08-19T19:58:46.048Z,2.70
2022-08-19T20:01:21.749Z,2.30
2022-08-19T20:03:57.001Z,2.42
2022-08-19T20:06:30.990Z,2.53
2022-08-19T20:09:16.293Z,2.50
2022-08-19T20:11:53.675Z,2.65
2022-08-19T20:14:32.739Z,2.83
2022-08-19T20:17:05.472Z,2.60
2022-08-19T20:19:38.205Z,2.55
2022-08-19T20:22:07.854Z,2.70
2022-08-19T20:24:38.102Z,2.55
2022-08-19T20:30:39.996Z,2.78
2022-08-19T20:33:47.455Z,2.42
2022-08-19T20:36:19.757Z,2.88
2022-08-19T20:38:55.614Z,2.75
2022-08-19T20:41:59.713Z,2.50
2022-08-19T20:45:32.866Z,2.58
2022-08-19T20:48:32.086Z,2.47
2022-08-19T20:51:27.994Z,2.33
2022-08-19T20:58:04.637Z,2.42
2022-08-19T21:00:58.903Z,2.35
2022-08-19T21:03:31.721Z,2.40
2022-08-19T21:06:02.512Z,2.40
2022-08-19T21:08:38.609Z,2.33
2022-08-19T21:11:08.119Z,2.53
2022-08-19T21:13:39.782Z,2.47
2022-08-19T21:16:18.360Z,2.45
2022-08-19T21:18:47.879Z,2.40
2022-08-19T21:21:18.517Z,2.42
2022-08-19T21:23:49.593Z,2.40
2022-08-19T21:26:20.150Z,2.40
2022-08-19T21:28:50.635Z,2.65
2022-08-19T21:31:19.780Z,2.53
2022-08-19T21:33:48.559Z,2.65
2022-08-19T21:36:18.352Z,2.40
2022-08-19T21:38:48.670Z,2.20
2022-08-19T21:41:20.339Z,2.40
2022-08-19T21:43:50.910Z,2.40
2022-08-19T21:46:20.560Z,2.40
2022-08-19T21:48:51.087Z,2.63
2022-08-19T21:51:19.903Z,2.72
2022-08-19T21:53:53.044Z,2.67
2022-08-19T21:56:23.781Z,2.40
2022-08-19T21:59:31.090Z,2.53
2022-08-19T22:02:19.239Z,2.58
2022-08-19T22:05:00.209Z,2.50
2022-08-19T22:07:31.325Z,2.40
2022-08-19T22:10:00.120Z,2.55
2022-08-19T22:12:31.872Z,2.45
2022-08-19T22:15:02.943Z,2.50
2022-08-19T22:18:08.617Z,2.45
2022-08-19T22:20:56.300Z,2.75
2022-08-19T22:23:26.306Z,2.58
2022-08-19T22:25:56.462Z,2.72
2022-08-19T22:28:27.956Z,2.67
2022-08-19T22:31:00.169Z,2.50
2022-08-19T22:33:35.891Z,2.50
2022-08-19T22:36:12.886Z,2.30
2022-08-19T22:38:46.666Z,2.67
2022-08-19T22:41:20.714Z,2.75
2022-08-19T22:43:52.647Z,2.35
2022-08-19T22:46:30.705Z,2.63
2022-08-19T22:49:14.911Z,2.40
2022-08-19T22:52:04.066Z,2.13
2022-08-19T22:54:35.514Z,2.42
2022-08-19T22:57:04.282Z,2.60
2022-08-19T22:59:34.953Z,2.50
2022-08-19T23:02:04.580Z,2.30
2022-08-19T23:04:54.159Z,2.45
2022-08-19T23:07:36.340Z,2.30
2022-08-19T23:12:40.361Z,2.28
2022-08-19T23:15:30.429Z,2.50
2022-08-19T23:18:07.108Z,2.35
2022-08-19T23:20:38.951Z,2.70
2022-08-19T23:23:28.517Z,2.80
2022-08-19T23:26:11.712Z,2.47
2022-08-19T23:29:16.653Z,2.58
2022-08-19T23:32:10.187Z,2.63
2022-08-19T23:34:48.141Z,2.53
2022-08-19T23:37:22.624Z,2.70
2022-08-19T23:39:59.458Z,2.40
2022-08-19T23:43:00.355Z,2.70
2022-08-19T23:45:36.871Z,2.50
2022-08-19T23:48:07.788Z,2.65
2022-08-19T23:50:38.822Z,2.45
2022-08-19T23:53:20.569Z,2.40
2022-08-19T23:56:02.119Z,2.40
2022-08-19T23:58:59.300Z,2.50
